sensor_id;sensor_type;location;lat;lon;timestamp;temperature;humidity
8114;DHT22;4099;52.684;9.918;2023-11-25T00:02:03;-0.40;99.90
8114;DHT22;4099;52.684;9.918;2023-11-25T00:07:09;-0.40;99.90
8114;DHT22;4099;52.684;9.918;2023-11-25T00:12:12;-0.50;99.90
8114;DHT22;4099;52.684;9.918;2023-11-25T00:17:19;-0.50;99.90
8114;DHT22;4099;52.684;9.918;2023-11-25T00:22:27;-0.50;99.90
8114;DHT22;4099;52.684;9.918;2023-11-25T00:27:33;-0.60;99.90
8114;DHT22;4099;52.684;9.918;2023-11-25T00:32:44;-0.60;99.90
8114;DHT22;4099;52.684;9.918;2023-11-25T00:37:52;-0.70;99.90
8114;DHT22;4099;52.684;9.918;2023-11-25T00:43:03;-0.70;99.90
8114;DHT22;4099;52.684;9.918;2023-11-25T00:48:09;-0.60;99.90
8114;DHT22;4099;52.684;9.918;2023-11-25T00:53:32;-0.70;99.90
8114;DHT22;4099;52.684;9.918;2023-11-25T00:58:43;-0.70;99.90
8114;DHT22;4099;52.684;9.918;2023-11-25T01:03:59;-0.70;99.90
8114;DHT22;4099;52.684;9.918;2023-11-25T01:09:23;-0.80;99.90
8114;DHT22;4099;52.684;9.918;2023-11-25T01:14:32;-0.70;99.90
8114;DHT22;4099;52.684;9.918;2023-11-25T01:25:21;-0.70;99.90
8114;DHT22;4099;52.684;9.918;2023-11-25T01:30:32;-0.60;99.90
8114;DHT22;4099;52.684;9.918;2023-11-25T01:35:51;-0.70;99.90
8114;DHT22;4099;52.684;9.918;2023-11-25T01:41:01;-0.80;99.90
8114;DHT22;4099;52.684;9.918;2023-11-25T01:46:26;-0.90;99.90
8114;DHT22;4099;52.684;9.918;2023-11-25T01:51:42;-0.90;99.90
8114;DHT22;4099;52.684;9.918;2023-11-25T01:56:57;-0.90;99.90
8114;DHT22;4099;52.684;9.918;2023-11-25T02:02:04;-0.90;99.90
8114;DHT22;4099;52.684;9.918;2023-11-25T02:07:12;-0.70;99.90
8114;DHT22;4099;52.684;9.918;2023-11-25T02:12:21;-0.60;99.90
8114;DHT22;4099;52.684;9.918;2023-11-25T02:17:28;-0.60;99.90
8114;DHT22;4099;52.684;9.918;2023-11-25T02:22:37;-0.60;99.90
8114;DHT22;4099;52.684;9.918;2023-11-25T02:27:50;-0.50;99.90
8114;DHT22;4099;52.684;9.918;2023-11-25T02:32:57;-0.50;99.90
8114;DHT22;4099;52.684;9.918;2023-11-25T02:38:03;-0.50;99.90
8114;DHT22;4099;52.684;9.918;2023-11-25T02:43:07;-0.30;99.90
8114;DHT22;4099;52.684;9.918;2023-11-25T02:48:21;-0.30;99.90
8114;DHT22;4099;52.684;9.918;2023-11-25T02:53:47;-0.20;99.90
8114;DHT22;4099;52.684;9.918;2023-11-25T02:58:56;-0.10;99.90
8114;DHT22;4099;52.684;9.918;2023-11-25T03:04:01;-0.20;99.90
8114;DHT22;4099;52.684;9.918;2023-11-25T03:09:09;-0.20;99.90
8114;DHT22;4099;52.684;9.918;2023-11-25T03:14:21;-0.20;99.90
8114;DHT22;4099;52.684;9.918;2023-11-25T03:19:28;-0.20;99.90
8114;DHT22;4099;52.684;9.918;2023-11-25T03:24:33;-0.20;99.90
8114;DHT22;4099;52.684;9.918;2023-11-25T03:29:42;-0.20;99.90
8114;DHT22;4099;52.684;9.918;2023-11-25T03:34:54;-0.20;99.90
8114;DHT22;4099;52.684;9.918;2023-11-25T03:40:09;-0.30;99.90
8114;DHT22;4099;52.684;9.918;2023-11-25T03:45:38;-0.30;99.90
8114;DHT22;4099;52.684;9.918;2023-11-25T03:50:41;-0.20;99.90
8114;DHT22;4099;52.684;9.918;2023-11-25T03:55:58;-0.20;99.90
8114;DHT22;4099;52.684;9.918;2023-11-25T04:01:25;-0.20;99.90
8114;DHT22;4099;52.684;9.918;2023-11-25T04:06:29;-0.20;99.90
8114;DHT22;4099;52.684;9.918;2023-11-25T04:11:41;-0.10;99.90
8114;DHT22;4099;52.684;9.918;2023-11-25T04:16:53;0.00;99.90
8114;DHT22;4099;52.684;9.918;2023-11-25T04:22:20;0.10;99.90
8114;DHT22;4099;52.684;9.918;2023-11-25T04:27:28;0.00;99.90
8114;DHT22;4099;52.684;9.918;2023-11-25T04:32:40;0.10;99.90
8114;DHT22;4099;52.684;9.918;2023-11-25T04:38:24;0.10;99.90
8114;DHT22;4099;52.684;9.918;2023-11-25T04:43:36;0.00;99.90
8114;DHT22;4099;52.684;9.918;2023-11-25T04:48:58;0.10;99.90
8114;DHT22;4099;52.684;9.918;2023-11-25T04:54:09;0.10;99.90
8114;DHT22;4099;52.684;9.918;2023-11-25T04:59:19;0.10;99.90
8114;DHT22;4099;52.684;9.918;2023-11-25T05:04:28;0.00;99.90
8114;DHT22;4099;52.684;9.918;2023-11-25T05:09:38;0.10;99.90
8114;DHT22;4099;52.684;9.918;2023-11-25T05:14:47;0.10;99.90
8114;DHT22;4099;52.684;9.918;2023-11-25T05:20:04;0.20;99.90
8114;DHT22;4099;52.684;9.918;2023-11-25T05:25:10;0.30;99.90
8114;DHT22;4099;52.684;9.918;2023-11-25T05:30:15;0.40;99.90
8114;DHT22;4099;52.684;9.918;2023-11-25T05:35:19;0.40;99.90
8114;DHT22;4099;52.684;9.918;2023-11-25T05:40:23;0.50;99.90
8114;DHT22;4099;52.684;9.918;2023-11-25T05:45:33;0.60;99.90
8114;DHT22;4099;52.684;9.918;2023-11-25T05:50:54;0.70;99.90
8114;DHT22;4099;52.684;9.918;2023-11-25T05:56:03;0.80;99.90
8114;DHT22;4099;52.684;9.918;2023-11-25T06:01:09;0.90;99.90
8114;DHT22;4099;52.684;9.918;2023-11-25T06:06:19;1.20;99.90
8114;DHT22;4099;52.684;9.918;2023-11-25T06:11:24;1.30;99.90
8114;DHT22;4099;52.684;9.918;2023-11-25T06:16:32;1.40;99.90
8114;DHT22;4099;52.684;9.918;2023-11-25T06:21:39;1.40;99.90
8114;DHT22;4099;52.684;9.918;2023-11-25T06:26:45;1.50;99.90
8114;DHT22;4099;52.684;9.918;2023-11-25T06:32:04;1.50;99.90
8114;DHT22;4099;52.684;9.918;2023-11-25T06:37:30;1.50;99.90
8114;DHT22;4099;52.684;9.918;2023-11-25T06:42:34;1.60;99.90
8114;DHT22;4099;52.684;9.918;2023-11-25T06:48:28;1.50;99.90
8114;DHT22;4099;52.684;9.918;2023-11-25T06:54:00;1.50;99.90
8114;DHT22;4099;52.684;9.918;2023-11-25T06:59:08;1.40;99.90
8114;DHT22;4099;52.684;9.918;2023-11-25T07:04:18;1.40;99.90
8114;DHT22;4099;52.684;9.918;2023-11-25T07:09:38;1.50;99.90
8114;DHT22;4099;52.684;9.918;2023-11-25T07:15:02;1.50;99.90
8114;DHT22;4099;52.684;9.918;2023-11-25T07:20:26;1.40;99.90
8114;DHT22;4099;52.684;9.918;2023-11-25T07:25:50;1.40;99.90
8114;DHT22;4099;52.684;9.918;2023-11-25T07:31:07;1.40;99.90
8114;DHT22;4099;52.684;9.918;2023-11-25T07:36:45;1.30;99.90
8114;DHT22;4099;52.684;9.918;2023-11-25T07:42:16;1.30;99.90
8114;DHT22;4099;52.684;9.918;2023-11-25T07:47:36;1.40;99.90
8114;DHT22;4099;52.684;9.918;2023-11-25T07:53:10;1.50;99.90
8114;DHT22;4099;52.684;9.918;2023-11-25T08:04:42;1.60;99.90
8114;DHT22;4099;52.684;9.918;2023-11-25T08:10:02;1.60;99.90
8114;DHT22;4099;52.684;9.918;2023-11-25T08:15:30;1.70;99.90
8114;DHT22;4099;52.684;9.918;2023-11-25T08:20:54;1.80;99.90
8114;DHT22;4099;52.684;9.918;2023-11-25T08:27:06;1.90;99.90
8114;DHT22;4099;52.684;9.918;2023-11-25T08:32:10;1.90;99.90
8114;DHT22;4099;52.684;9.918;2023-11-25T08:37:40;2.00;99.90
8114;DHT22;4099;52.684;9.918;2023-11-25T08:43:17;2.10;99.90
8114;DHT22;4099;52.684;9.918;2023-11-25T08:48:37;2.20;99.90
8114;DHT22;4099;52.684;9.918;2023-11-25T08:53:59;2.30;99.90
8114;DHT22;4099;52.684;9.918;2023-11-25T08:59:13;2.30;99.90
8114;DHT22;4099;52.684;9.918;2023-11-25T09:04:57;2.40;99.90
8114;DHT22;4099;52.684;9.918;2023-11-25T09:10:34;2.50;99.90
8114;DHT22;4099;52.684;9.918;2023-11-25T09:16:01;2.60;99.90
8114;DHT22;4099;52.684;9.918;2023-11-25T09:21:14;2.70;99.90
8114;DHT22;4099;52.684;9.918;2023-11-25T09:26:31;2.80;99.90
8114;DHT22;4099;52.684;9.918;2023-11-25T09:31:43;3.00;99.90
8114;DHT22;4099;52.684;9.918;2023-11-25T09:37:10;3.00;99.90
8114;DHT22;4099;52.684;9.918;2023-11-25T09:42:31;3.20;99.90
8114;DHT22;4099;52.684;9.918;2023-11-25T09:48:00;3.20;99.90
8114;DHT22;4099;52.684;9.918;2023-11-25T09:53:23;3.20;99.90
8114;DHT22;4099;52.684;9.918;2023-11-25T09:58:42;3.30;99.90
8114;DHT22;4099;52.684;9.918;2023-11-25T10:03:54;3.40;99.90
8114;DHT22;4099;52.684;9.918;2023-11-25T10:09:04;3.30;99.90
8114;DHT22;4099;52.684;9.918;2023-11-25T10:14:28;3.30;99.90
8114;DHT22;4099;52.684;9.918;2023-11-25T10:19:37;3.40;99.90
8114;DHT22;4099;52.684;9.918;2023-11-25T10:25:27;3.40;99.90
8114;DHT22;4099;52.684;9.918;2023-11-25T10:30:56;3.50;99.90
8114;DHT22;4099;52.684;9.918;2023-11-25T10:36:19;3.60;99.90
8114;DHT22;4099;52.684;9.918;2023-11-25T10:41:54;3.60;99.90
8114;DHT22;4099;52.684;9.918;2023-11-25T10:52:56;3.80;99.90
8114;DHT22;4099;52.684;9.918;2023-11-25T10:58:04;3.80;99.90
8114;DHT22;4099;52.684;9.918;2023-11-25T11:03:37;4.00;99.90
8114;DHT22;4099;52.684;9.918;2023-11-25T11:09:20;4.20;99.90
8114;DHT22;4099;52.684;9.918;2023-11-25T11:14:38;4.30;99.90
8114;DHT22;4099;52.684;9.918;2023-11-25T11:20:08;4.50;99.90
8114;DHT22;4099;52.684;9.918;2023-11-25T11:25:30;4.50;99.90
8114;DHT22;4099;52.684;9.918;2023-11-25T11:36:51;4.60;99.90
8114;DHT22;4099;52.684;9.918;2023-11-25T11:42:24;4.90;99.90
8114;DHT22;4099;52.684;9.918;2023-11-25T11:47:33;4.90;99.90
8114;DHT22;4099;52.684;9.918;2023-11-25T11:53:10;5.30;99.90
8114;DHT22;4099;52.684;9.918;2023-11-25T11:58:27;5.30;99.90
8114;DHT22;4099;52.684;9.918;2023-11-25T12:03:44;5.20;99.90
8114;DHT22;4099;52.684;9.918;2023-11-25T12:09:06;5.20;99.90
8114;DHT22;4099;52.684;9.918;2023-11-25T12:14:19;5.20;99.90
8114;DHT22;4099;52.684;9.918;2023-11-25T12:19:34;5.30;99.90
8114;DHT22;4099;52.684;9.918;2023-11-25T12:24:47;5.30;99.90
8114;DHT22;4099;52.684;9.918;2023-11-25T12:30:13;5.50;99.90
8114;DHT22;4099;52.684;9.918;2023-11-25T12:35:40;5.80;99.90
8114;DHT22;4099;52.684;9.918;2023-11-25T12:40:57;5.60;99.90
8114;DHT22;4099;52.684;9.918;2023-11-25T12:46:09;6.20;99.90
8114;DHT22;4099;52.684;9.918;2023-11-25T12:51:40;7.10;99.90
8114;DHT22;4099;52.684;9.918;2023-11-25T12:57:00;8.50;99.90
8114;DHT22;4099;52.684;9.918;2023-11-25T13:02:12;7.80;99.90
8114;DHT22;4099;52.684;9.918;2023-11-25T13:07:40;7.20;99.90
8114;DHT22;4099;52.684;9.918;2023-11-25T13:12:59;7.10;99.90
8114;DHT22;4099;52.684;9.918;2023-11-25T13:18:09;7.40;99.90
8114;DHT22;4099;52.684;9.918;2023-11-25T13:23:15;7.20;99.90
8114;DHT22;4099;52.684;9.918;2023-11-25T13:28:32;8.00;99.90
8114;DHT22;4099;52.684;9.918;2023-11-25T13:34:14;8.20;99.90
8114;DHT22;4099;52.684;9.918;2023-11-25T13:39:12;8.80;99.90
8114;DHT22;4099;52.684;9.918;2023-11-25T13:50:16;7.60;99.90
8114;DHT22;4099;52.684;9.918;2023-11-25T13:55:29;7.70;99.90
8114;DHT22;4099;52.684;9.918;2023-11-25T14:00:52;7.60;99.90
8114;DHT22;4099;52.684;9.918;2023-11-25T14:06:08;6.80;99.90
8114;DHT22;4099;52.684;9.918;2023-11-25T14:11:14;6.10;99.90
8114;DHT22;4099;52.684;9.918;2023-11-25T14:16:55;5.70;99.90
8114;DHT22;4099;52.684;9.918;2023-11-25T14:22:09;5.20;99.90
8114;DHT22;4099;52.684;9.918;2023-11-25T14:27:28;4.80;99.90
8114;DHT22;4099;52.684;9.918;2023-11-25T14:32:41;4.50;99.90
8114;DHT22;4099;52.684;9.918;2023-11-25T14:37:59;4.20;99.90
8114;DHT22;4099;52.684;9.918;2023-11-25T14:43:11;3.80;99.90
8114;DHT22;4099;52.684;9.918;2023-11-25T14:54:14;3.60;99.90
8114;DHT22;4099;52.684;9.918;2023-11-25T14:59:52;3.50;99.90
8114;DHT22;4099;52.684;9.918;2023-11-25T15:05:07;3.20;99.90
8114;DHT22;4099;52.684;9.918;2023-11-25T15:10:36;3.20;99.90
8114;DHT22;4099;52.684;9.918;2023-11-25T15:16:06;3.00;99.90
8114;DHT22;4099;52.684;9.918;2023-11-25T15:21:09;2.70;99.90
8114;DHT22;4099;52.684;9.918;2023-11-25T15:26:32;2.50;99.90
8114;DHT22;4099;52.684;9.918;2023-11-25T15:32:00;2.30;99.90
8114;DHT22;4099;52.684;9.918;2023-11-25T15:37:32;2.00;99.90
8114;DHT22;4099;52.684;9.918;2023-11-25T15:42:45;1.80;99.90
8114;DHT22;4099;52.684;9.918;2023-11-25T15:47:54;1.80;99.90
8114;DHT22;4099;52.684;9.918;2023-11-25T15:53:19;1.80;99.90
8114;DHT22;4099;52.684;9.918;2023-11-25T15:58:45;1.70;99.90
8114;DHT22;4099;52.684;9.918;2023-11-25T16:03:58;1.50;99.90
8114;DHT22;4099;52.684;9.918;2023-11-25T16:09:05;1.30;99.90
8114;DHT22;4099;52.684;9.918;2023-11-25T16:14:13;1.20;99.90
8114;DHT22;4099;52.684;9.918;2023-11-25T16:19:29;1.10;99.90
8114;DHT22;4099;52.684;9.918;2023-11-25T16:24:37;1.20;99.90
8114;DHT22;4099;52.684;9.918;2023-11-25T16:30:02;1.20;99.90
8114;DHT22;4099;52.684;9.918;2023-11-25T16:35:21;1.20;99.90
8114;DHT22;4099;52.684;9.918;2023-11-25T16:40:35;1.10;99.90
8114;DHT22;4099;52.684;9.918;2023-11-25T16:46:01;1.10;99.90
8114;DHT22;4099;52.684;9.918;2023-11-25T16:51:14;1.00;99.90
8114;DHT22;4099;52.684;9.918;2023-11-25T16:56:31;1.00;99.90
8114;DHT22;4099;52.684;9.918;2023-11-25T17:02:21;1.00;99.90
8114;DHT22;4099;52.684;9.918;2023-11-25T17:07:14;1.00;99.90
8114;DHT22;4099;52.684;9.918;2023-11-25T17:12:35;1.00;99.90
8114;DHT22;4099;52.684;9.918;2023-11-25T17:18:00;1.20;99.90
8114;DHT22;4099;52.684;9.918;2023-11-25T17:23:12;1.40;99.90
8114;DHT22;4099;52.684;9.918;2023-11-25T17:28:29;1.50;99.90
8114;DHT22;4099;52.684;9.918;2023-11-25T17:33:51;1.80;99.90
8114;DHT22;4099;52.684;9.918;2023-11-25T17:38:59;2.00;99.90
8114;DHT22;4099;52.684;9.918;2023-11-25T17:44:13;2.00;99.90
8114;DHT22;4099;52.684;9.918;2023-11-25T17:49:41;2.10;99.90
8114;DHT22;4099;52.684;9.918;2023-11-25T17:54:50;2.10;99.90
8114;DHT22;4099;52.684;9.918;2023-11-25T18:00:13;2.20;99.90
8114;DHT22;4099;52.684;9.918;2023-11-25T18:05:20;2.20;99.90
8114;DHT22;4099;52.684;9.918;2023-11-25T18:15:48;2.00;99.90
8114;DHT22;4099;52.684;9.918;2023-11-25T18:22:36;1.90;99.90
8114;DHT22;4099;52.684;9.918;2023-11-25T18:26:46;1.80;99.90
8114;DHT22;4099;52.684;9.918;2023-11-25T18:31:54;1.60;99.90
8114;DHT22;4099;52.684;9.918;2023-11-25T18:37:08;1.60;99.90
8114;DHT22;4099;52.684;9.918;2023-11-25T18:42:16;1.40;99.90
8114;DHT22;4099;52.684;9.918;2023-11-25T18:47:21;1.20;99.90
8114;DHT22;4099;52.684;9.918;2023-11-25T18:52:34;0.80;99.90
8114;DHT22;4099;52.684;9.918;2023-11-25T18:57:46;0.50;99.90
8114;DHT22;4099;52.684;9.918;2023-11-25T19:02:49;0.20;99.90
8114;DHT22;4099;52.684;9.918;2023-11-25T19:08:17;-0.10;99.90
8114;DHT22;4099;52.684;9.918;2023-11-25T19:13:35;-0.40;99.90
8114;DHT22;4099;52.684;9.918;2023-11-25T19:19:00;-0.50;99.90
8114;DHT22;4099;52.684;9.918;2023-11-25T19:24:31;-0.70;99.90
8114;DHT22;4099;52.684;9.918;2023-11-25T19:29:44;-0.80;99.90
8114;DHT22;4099;52.684;9.918;2023-11-25T19:35:13;-0.80;99.90
8114;DHT22;4099;52.684;9.918;2023-11-25T19:40:20;-0.90;99.90
8114;DHT22;4099;52.684;9.918;2023-11-25T19:51:13;-0.80;99.90
8114;DHT22;4099;52.684;9.918;2023-11-25T19:56:32;-0.50;99.90
8114;DHT22;4099;52.684;9.918;2023-11-25T20:03:04;-0.70;99.90
8114;DHT22;4099;52.684;9.918;2023-11-25T20:07:34;-0.80;99.90
8114;DHT22;4099;52.684;9.918;2023-11-25T20:12:56;-0.90;99.90
8114;DHT22;4099;52.684;9.918;2023-11-25T20:19:56;-1.00;99.90
8114;DHT22;4099;52.684;9.918;2023-11-25T20:24:28;-1.10;99.90
8114;DHT22;4099;52.684;9.918;2023-11-25T20:30:14;-0.80;99.90
8114;DHT22;4099;52.684;9.918;2023-11-25T20:35:33;-0.80;99.90
8114;DHT22;4099;52.684;9.918;2023-11-25T20:41:12;-0.60;99.90
8114;DHT22;4099;52.684;9.918;2023-11-25T20:46:53;-0.60;99.90
8114;DHT22;4099;52.684;9.918;2023-11-25T20:52:08;-0.80;99.90
8114;DHT22;4099;52.684;9.918;2023-11-25T20:57:29;-1.10;99.90
8114;DHT22;4099;52.684;9.918;2023-11-25T21:02:44;-1.10;99.90
8114;DHT22;4099;52.684;9.918;2023-11-25T21:07:54;-1.00;99.90
8114;DHT22;4099;52.684;9.918;2023-11-25T21:13:13;-1.00;99.90
8114;DHT22;4099;52.684;9.918;2023-11-25T21:18:36;-1.20;99.90
8114;DHT22;4099;52.684;9.918;2023-11-25T21:23:45;-1.50;99.90
8114;DHT22;4099;52.684;9.918;2023-11-25T21:28:57;-1.50;99.90
8114;DHT22;4099;52.684;9.918;2023-11-25T21:34:15;-1.40;99.90
8114;DHT22;4099;52.684;9.918;2023-11-25T21:39:30;-1.50;99.90
8114;DHT22;4099;52.684;9.918;2023-11-25T21:44:40;-1.30;99.90
8114;DHT22;4099;52.684;9.918;2023-11-25T21:49:52;-1.40;99.90
8114;DHT22;4099;52.684;9.918;2023-11-25T21:55:06;-1.30;99.90
8114;DHT22;4099;52.684;9.918;2023-11-25T22:00:09;-1.40;99.90
8114;DHT22;4099;52.684;9.918;2023-11-25T22:05:21;-1.20;99.90
8114;DHT22;4099;52.684;9.918;2023-11-25T22:10:45;-1.30;99.90
8114;DHT22;4099;52.684;9.918;2023-11-25T22:16:08;-1.20;99.90
8114;DHT22;4099;52.684;9.918;2023-11-25T22:21:41;-1.20;99.90
8114;DHT22;4099;52.684;9.918;2023-11-25T22:28:12;-1.20;99.90
8114;DHT22;4099;52.684;9.918;2023-11-25T22:33:10;-1.30;99.90
8114;DHT22;4099;52.684;9.918;2023-11-25T22:38:40;-1.30;99.90
8114;DHT22;4099;52.684;9.918;2023-11-25T22:43:57;-1.20;99.90
8114;DHT22;4099;52.684;9.918;2023-11-25T22:49:17;-1.30;99.90
8114;DHT22;4099;52.684;9.918;2023-11-25T22:54:26;-1.10;99.90
8114;DHT22;4099;52.684;9.918;2023-11-25T22:59:32;-1.10;99.90
8114;DHT22;4099;52.684;9.918;2023-11-25T23:04:37;-1.10;99.90
8114;DHT22;4099;52.684;9.918;2023-11-25T23:09:52;-1.00;99.90
8114;DHT22;4099;52.684;9.918;2023-11-25T23:15:06;-0.90;99.90
8114;DHT22;4099;52.684;9.918;2023-11-25T23:20:15;-0.80;99.90
8114;DHT22;4099;52.684;9.918;2023-11-25T23:25:24;-0.80;99.90
8114;DHT22;4099;52.684;9.918;2023-11-25T23:30:40;-0.70;99.90
8114;DHT22;4099;52.684;9.918;2023-11-25T23:35:44;-0.60;99.90
8114;DHT22;4099;52.684;9.918;2023-11-25T23:40:57;-0.60;99.90
8114;DHT22;4099;52.684;9.918;2023-11-25T23:46:14;-0.60;99.90
8114;DHT22;4099;52.684;9.918;2023-11-25T23:51:25;-0.60;99.90
8114;DHT22;4099;52.684;9.918;2023-11-25T23:56:41;-0.80;99.90
